Airfield :
LOGIN :

Register | Disclaimer

   EN    FR    IT 

 










Legend :    VFR   Marginal VFR   IFR   Intensive IFR   Very Intensive IFR
Visi :
Ceiling :
>= 8 km
>= 3000ft
5 to 8 km
1000 to 3000 ft
1500m to 5 km
500 to 1000 ft
800 to 1500m
200 to 500 ft
< 800m
< 200 ft
Symbols :   Thunderstorms  Fog  Heavy snow  Heavy precipitations  Wind > 20 kt
SIGMETs :     Misc.  Thunderstorms  Icing  Turbulence  Mountain Waves  Volcanic Ashes






- Airport Elevation : 357 ft
- IATA code : TUF


LFOT - Tours

CURRENT METAR :
  • 231800Z AUTO 08005KT CAVOK 08/04 Q1025 NOSIG

EXPIRED METARs :
  • 231730Z AUTO 09005KT CAVOK 10/04 Q1025 NOSIG
  • 231700Z AUTO 10007KT CAVOK 11/05 Q1025 NOSIG
  • 231630Z AUTO 10006KT CAVOK 13/05 Q1025 NOSIG
  • 231600Z AUTO 10007KT CAVOK 14/05 Q1025 NOSIG
  • 231530Z AUTO 09008KT CAVOK 14/05 Q1025 NOSIG

TAF TAF LFOT
Valid from the 23 at 18:00 until the 24 at 18:00 UTC


231700Z 2318/2418 09005KT CAVOK
TEMPO 2401/2406 VRB02KT 4000 BR
PROB30
TEMPO 2404/2406 2000 MIFG
BECMG 2408/2410 20005KT



MET'MAP, your aeronautical weather chart ! - Copyright ORBIFLY December 2007 - Disclaimer

ORBIFLY MET'MAP TEAM :

Programming & Development : Alexandra Zaïnal
Concept & original design : Baudouin d'Aumeries
Assistance for programming : Marc-Olivier Méhu
Technical & hardware support : Manuel Goepfert

Contact : metmap@orbifly.com




SOURCES & CREDITS :

   NOAA